Time;durP1;ratioP1;P1;durP2;ratioP2;P2;SDS_P1;SDS_P2;PMS_P1;PMS_P2;Temp;Humidity;BMP_temperature;BMP_pressure;BME280_temperature;BME280_humidity;BME280_pressure;Samples;Min_cycle;Max_cycle;Signal;HPM_P1;HPM_P2
2021/12/01 00:00:34;;;;;;;5.40;1.73;;;;;;;-2.09;71.34;96031.28;5090989;28;20466;-72
2021/12/01 00:03:00;;;;;;;5.78;1.40;;;;;;;-2.21;72.76;96029.00;5071455;28;20131;-72
2021/12/01 00:05:31;;;;;;;5.80;1.30;;;;;;;-2.20;73.21;96020.66;5079923;28;20591;-72
2021/12/01 00:07:59;;;;;;;4.63;1.50;;;;;;;-2.25;74.06;96025.31;5087867;28;20048;-72
2021/12/01 00:10:27;;;;;;;3.70;1.27;;;;;;;-2.35;74.56;96069.81;5069426;28;20056;-73
2021/12/01 00:12:54;;;;;;;6.30;1.73;;;;;;;-2.40;75.04;96074.41;5079916;28;20054;-75
2021/12/01 00:15:20;;;;;;;4.60;1.55;;;;;;;-2.50;75.80;96061.94;5084954;28;20059;-73
2021/12/01 00:17:47;;;;;;;5.43;1.73;;;;;;;-2.52;76.11;96064.09;5088037;28;20080;-74
2021/12/01 00:20:17;;;;;;;3.47;1.25;;;;;;;-2.51;75.99;96076.38;5083686;28;20189;-74
2021/12/01 00:22:46;;;;;;;2.47;1.20;;;;;;;-2.53;76.03;96030.41;5071161;28;20044;-74
2021/12/01 00:25:15;;;;;;;5.73;1.27;;;;;;;-2.48;76.16;96060.56;5086686;28;20101;-74
2021/12/01 00:27:46;;;;;;;4.30;1.37;;;;;;;-2.53;75.67;96022.38;5078323;28;20165;-74
2021/12/01 00:30:12;;;;;;;3.53;1.50;;;;;;;-2.30;75.07;96015.44;5070554;28;20424;-76
2021/12/01 00:32:38;;;;;;;3.07;1.30;;;;;;;-2.33;75.10;96050.81;5093243;28;20540;-77
2021/12/01 00:35:05;;;;;;;3.93;1.47;;;;;;;-2.37;75.27;96071.16;5098169;28;20074;-77
2021/12/01 00:37:32;;;;;;;6.40;1.20;;;;;;;-2.42;75.51;96043.38;5093692;28;20044;-78
2021/12/01 00:40:00;;;;;;;2.65;1.10;;;;;;;-2.42;75.59;96067.47;5108707;28;20557;-77
2021/12/01 00:42:26;;;;;;;4.13;1.63;;;;;;;-2.47;75.90;96066.72;5095757;28;20412;-77
2021/12/01 00:44:58;;;;;;;7.07;1.40;;;;;;;-2.44;75.95;96063.47;5094242;28;20047;-77
2021/12/01 00:47:31;;;;;;;4.60;1.20;;;;;;;-2.42;76.00;96038.03;5114563;28;20050;-77
2021/12/01 00:49:57;;;;;;;7.13;1.90;;;;;;;-2.33;75.62;96056.94;5095570;28;20430;-76
2021/12/01 00:52:24;;;;;;;5.80;1.80;;;;;;;-2.43;75.83;96020.38;5093090;28;20460;-76
2021/12/01 00:54:50;;;;;;;7.80;1.70;;;;;;;-2.35;75.44;96045.72;5092132;28;20431;-77
2021/12/01 00:57:18;;;;;;;4.87;1.33;;;;;;;-2.46;75.46;96044.22;5093683;28;20636;-76
2021/12/01 00:59:44;;;;;;;3.22;1.40;;;;;;;-2.50;75.73;96049.34;5092914;28;20044;-75
2021/12/01 01:02:10;;;;;;;4.80;1.37;;;;;;;-2.58;75.75;96057.97;5093668;28;20048;-76
2021/12/01 01:04:36;;;;;;;3.17;1.20;;;;;;;-2.38;75.31;96058.88;5092878;28;20051;-75
2021/12/01 01:07:02;;;;;;;5.60;1.60;;;;;;;-2.40;75.23;96036.94;5094940;28;20043;-75
2021/12/01 01:09:31;;;;;;;5.17;1.23;;;;;;;-2.36;75.27;96075.44;5094549;28;20055;-75
2021/12/01 01:17:38;;;;;;;9.98;1.67;;;;;;;-2.12;74.68;96053.28;5094439;28;20047;-75
2021/12/01 01:20:08;;;;;;;3.83;1.17;;;;;;;-2.19;74.90;96050.94;5093595;28;20052;-74
2021/12/01 01:22:35;;;;;;;6.27;1.50;;;;;;;-2.10;74.46;96075.19;5091561;28;20044;-76
2021/12/01 01:25:00;;;;;;;5.60;1.50;;;;;;;-2.05;74.29;96038.47;5092218;28;20192;-76
2021/12/01 01:27:28;;;;;;;;;;;;;;;-2.03;74.34;96065.75;5092354;28;20070;-76
2021/12/01 01:29:56;;;;;;;6.67;1.40;;;;;;;-2.18;74.75;96050.66;5091002;28;20408;-76
2021/12/01 01:32:22;;;;;;;;;;;;;;;-2.18;74.92;96050.66;5090961;28;20044;-76
2021/12/01 01:34:48;;;;;;;9.90;1.40;;;;;;;-2.28;75.04;96080.19;5091093;28;19931;-77
2021/12/01 01:37:14;;;;;;;4.23;1.30;;;;;;;-2.21;74.90;96053.88;5093568;28;20075;-76
2021/12/01 01:39:40;;;;;;;4.93;1.40;;;;;;;-2.24;75.07;96054.44;5089533;28;20051;-77
2021/12/01 01:42:06;;;;;;;4.93;1.47;;;;;;;-2.24;75.30;96062.47;5092556;28;20579;-77
2021/12/01 01:44:32;;;;;;;5.43;1.67;;;;;;;-2.35;75.35;96090.41;5093772;28;20044;-77
2021/12/01 01:47:00;;;;;;;4.47;1.47;;;;;;;-2.38;75.68;96072.25;5091452;28;20044;-77
2021/12/01 01:52:26;;;;;;;4.13;1.50;;;;;;;-2.53;75.81;96044.56;5027080;28;20091;-77
2021/12/01 01:54:52;;;;;;;;;;;;;;;-2.37;75.59;96060.47;5050056;28;20044;-77
2021/12/01 01:57:18;;;;;;;5.40;1.70;;;;;;;-2.24;75.27;96057.13;5084410;28;19923;-76
2021/12/01 01:59:47;;;;;;;3.97;1.40;;;;;;;-2.22;75.17;96071.00;5091618;28;20099;-76
2021/12/01 02:02:14;;;;;;;9.93;2.10;;;;;;;-2.24;74.75;96105.31;5092755;28;20071;-76
2021/12/01 02:04:40;;;;;;;5.63;1.60;;;;;;;-2.45;75.29;96076.06;5092325;28;20143;-76
2021/12/01 02:07:06;;;;;;;4.70;1.43;;;;;;;-2.39;75.36;96084.84;5094541;28;20428;-76
2021/12/01 02:09:33;;;;;;;5.83;1.50;;;;;;;-2.30;74.88;96072.44;5076380;28;20048;-76
2021/12/01 02:12:00;;;;;;;3.23;1.40;;;;;;;-2.31;74.77;96100.28;5092452;28;20394;-76
2021/12/01 02:14:27;;;;;;;4.80;1.55;;;;;;;-2.38;74.61;96089.13;5091354;28;20064;-76
2021/12/01 02:16:54;;;;;;;4.25;1.42;;;;;;;-2.24;74.73;96075.06;5088157;28;20496;-76
2021/12/01 02:19:22;;;;;;;8.77;1.63;;;;;;;-2.31;74.80;96088.78;5092664;28;20040;-75
2021/12/01 02:21:50;;;;;;;4.07;1.43;;;;;;;-2.32;74.32;96071.91;5071477;28;20040;-76
2021/12/01 02:24:20;;;;;;;6.73;1.47;;;;;;;-2.42;74.54;96088.88;5090574;28;20040;-76
2021/12/01 02:26:51;;;;;;;5.47;1.37;;;;;;;-2.35;74.47;96099.25;5095846;28;20138;-76
2021/12/01 02:29:20;;;;;;;5.27;1.40;;;;;;;-2.33;74.51;96077.56;5101259;28;20523;-76
2021/12/01 02:31:47;;;;;;;8.60;1.73;;;;;;;-2.35;74.42;96109.16;5089855;28;20527;-76
2021/12/01 02:34:17;;;;;;;5.27;1.77;;;;;;;-2.60;74.84;96106.41;5087878;28;20056;-75
2021/12/01 02:36:46;;;;;;;3.50;1.23;;;;;;;-2.47;74.40;96102.31;5072808;28;20113;-74
2021/12/01 02:39:15;;;;;;;4.23;1.50;;;;;;;-2.36;74.16;96080.78;5091840;28;20048;-75
2021/12/01 02:41:42;;;;;;;4.43;1.30;;;;;;;-2.23;73.76;96080.13;5092012;28;20424;-75
2021/12/01 02:44:11;;;;;;;3.97;1.50;;;;;;;-2.33;73.50;96109.69;5090193;28;20455;-76
2021/12/01 02:46:37;;;;;;;4.77;1.50;;;;;;;-2.43;73.75;96100.66;5078324;28;20056;-75
2021/12/01 02:49:05;;;;;;;3.67;1.27;;;;;;;-2.29;73.64;96076.69;5064086;28;20082;-76
2021/12/01 02:51:33;;;;;;;4.63;1.45;;;;;;;-2.26;73.34;96087.91;5111714;27;20050;-75
2021/12/01 02:53:59;;;;;;;6.50;1.60;;;;;;;-2.28;73.56;96101.59;5093929;28;20048;-75
2021/12/01 02:56:34;;;;;;;9.37;2.03;;;;;;;-2.21;73.18;96099.38;5090392;28;20043;-76
2021/12/01 02:59:03;;;;;;;4.17;1.40;;;;;;;-2.30;73.34;96103.75;5091077;28;20048;-77
2021/12/01 03:01:29;;;;;;;3.50;1.30;;;;;;;-2.18;73.03;96098.84;5067617;28;20041;-76
2021/12/01 03:03:57;;;;;;;4.40;1.63;;;;;;;-2.16;72.72;96101.22;5090148;28;20048;-76
2021/12/01 03:06:25;;;;;;;7.55;1.23;;;;;;;-2.16;72.71;96077.94;5090062;28;20071;-76
2021/12/01 03:08:51;;;;;;;6.27;1.80;;;;;;;-2.12;72.56;96093.41;5087950;28;20150;-76
2021/12/01 03:11:18;;;;;;;4.40;1.40;;;;;;;-2.18;72.48;96098.03;5070081;28;20056;-76
2021/12/01 03:13:45;;;;;;;4.93;1.60;;;;;;;-2.33;72.82;96113.16;5090331;28;20044;-76
2021/12/01 03:16:11;;;;;;;6.63;1.60;;;;;;;-2.25;72.58;96084.19;5090370;28;20071;-76
2021/12/01 03:18:37;;;;;;;4.97;1.48;;;;;;;-2.24;72.39;96117.91;5092209;28;20040;-77
2021/12/01 03:21:04;;;;;;;5.03;1.70;;;;;;;-2.22;72.03;96105.81;5082256;28;20456;-76
2021/12/01 03:23:30;;;;;;;6.33;1.90;;;;;;;-2.17;72.05;96103.09;5086820;28;20041;-76
2021/12/01 03:25:56;;;;;;;8.33;2.50;;;;;;;-2.04;71.87;96107.00;5080737;28;20052;-76
2021/12/01 03:28:22;;;;;;;6.18;1.60;;;;;;;-2.08;71.97;96108.63;5098804;28;20067;-76
2021/12/01 03:30:50;;;;;;;4.87;1.50;;;;;;;-2.01;71.50;96114.44;5084431;28;20094;-76
2021/12/01 03:33:18;;;;;;;6.28;1.80;;;;;;;-2.19;71.66;96089.19;5083854;28;20467;-77
2021/12/01 03:35:46;;;;;;;4.37;1.63;;;;;;;-2.17;71.69;96104.97;5081654;28;20109;-77
2021/12/01 03:38:13;;;;;;;4.95;1.60;;;;;;;-2.16;71.26;96091.31;5090492;28;20048;-78
2021/12/01 03:40:40;;;;;;;6.45;1.60;;;;;;;-2.09;71.19;96101.69;5067650;28;20048;-75
2021/12/01 03:43:06;;;;;;;5.13;1.80;;;;;;;-1.97;70.89;96095.13;5065347;28;20037;-77
2021/12/01 03:45:32;;;;;;;3.10;1.35;;;;;;;-1.93;70.94;96107.66;5083171;28;20040;-76
2021/12/01 03:48:00;;;;;;;8.10;1.50;;;;;;;-2.01;70.73;96106.41;5091910;28;20533;-76
2021/12/01 03:50:26;;;;;;;4.55;1.40;;;;;;;-2.09;70.99;96108.91;5089707;28;20505;-76
2021/12/01 03:52:52;;;;;;;5.47;1.77;;;;;;;-2.05;70.76;96112.63;5090368;28;20408;-77
2021/12/01 03:55:18;;;;;;;4.70;1.33;;;;;;;-2.08;70.85;96113.19;5091024;28;20401;-76
2021/12/01 03:57:44;;;;;;;8.00;1.80;;;;;;;-2.15;70.70;96113.50;5090351;28;20063;-76
2021/12/01 04:00:14;;;;;;;4.17;1.67;;;;;;;-2.19;71.04;96115.94;5097148;28;20047;-75
2021/12/01 04:02:42;;;;;;;6.63;1.80;;;;;;;-2.42;71.32;96120.16;5092288;28;20086;-76
2021/12/01 04:05:10;;;;;;;4.97;1.83;;;;;;;-2.42;71.64;96134.38;5094983;28;20048;-76
2021/12/01 04:07:36;;;;;;;5.37;1.70;;;;;;;-2.33;71.33;96136.44;5096282;28;20143;-75
2021/12/01 04:10:05;;;;;;;6.87;1.93;;;;;;;-2.44;71.59;96133.84;5095320;28;20490;-75
2021/12/01 04:12:32;;;;;;;7.27;1.70;;;;;;;-2.41;71.57;96145.88;5102000;28;20044;-75
2021/12/01 04:14:58;;;;;;;6.07;1.60;;;;;;;-2.46;71.54;96152.06;5103871;28;20048;-74
2021/12/01 04:17:24;;;;;;;11.50;1.50;;;;;;;-2.44;71.57;96151.75;5096879;28;20040;-76
2021/12/01 04:19:50;;;;;;;6.23;2.00;;;;;;;-2.64;71.97;96156.19;5092829;28;20539;-76
2021/12/01 04:22:18;;;;;;;5.73;1.90;;;;;;;-2.70;72.54;96133.25;5087802;28;20513;-76
2021/12/01 04:24:44;;;;;;;4.90;1.88;;;;;;;-2.61;72.50;96128.09;5086994;28;20048;-76
2021/12/01 04:27:10;;;;;;;6.93;1.83;;;;;;;-2.64;72.63;96166.91;5091411;28;20059;-76
2021/12/01 04:29:37;;;;;;;5.80;1.70;;;;;;;-2.44;72.30;96133.84;5091195;28;20032;-76
2021/12/01 04:32:04;;;;;;;4.30;1.60;;;;;;;-2.59;72.29;96177.56;5088768;28;20079;-76
2021/12/01 04:34:30;;;;;;;5.38;1.90;;;;;;;-2.65;72.76;96125.19;5078591;28;20040;-77
2021/12/01 04:36:56;;;;;;;7.03;2.23;;;;;;;-2.52;72.12;96149.69;5074467;28;20079;-76
2021/12/01 04:39:23;;;;;;;8.60;2.33;;;;;;;-2.46;72.10;96141.34;5088834;28;20097;-76
2021/12/01 04:42:04;;;;;;;7.25;2.03;;;;;;;-2.49;71.99;96157.16;5095135;28;20058;-76
2021/12/01 04:44:32;;;;;;;6.33;2.13;;;;;;;-2.50;71.79;96188.47;5094011;28;20089;-76
2021/12/01 04:47:01;;;;;;;7.57;2.17;;;;;;;-2.67;72.31;96151.41;5074321;28;20044;-74
2021/12/01 04:49:29;;;;;;;7.00;2.33;;;;;;;-2.74;72.42;96153.59;5082370;28;20139;-76
2021/12/01 04:51:57;;;;;;;4.63;1.70;;;;;;;-2.70;72.24;96157.31;5082699;28;20052;-76
2021/12/01 04:54:26;;;;;;;5.90;1.97;;;;;;;-2.72;72.60;96156.81;5093107;28;20047;-75
2021/12/01 04:56:53;;;;;;;11.13;2.20;;;;;;;-2.73;72.48;96156.00;5081588;28;20131;-76
2021/12/01 04:59:20;;;;;;;5.65;2.03;;;;;;;-2.82;72.42;96124.78;5074659;28;20488;-75
2021/12/01 05:01:47;;;;;;;9.10;2.10;;;;;;;-2.83;72.38;96164.06;5088298;28;20405;-77
2021/12/01 05:04:13;;;;;;;5.93;1.90;;;;;;;-2.78;72.56;96168.59;5093670;28;20044;-77
2021/12/01 05:06:40;;;;;;;7.50;2.17;;;;;;;-2.62;71.90;96164.75;5088940;28;20299;-77
2021/12/01 05:09:08;;;;;;;6.70;2.13;;;;;;;-2.59;72.06;96164.19;5093734;28;20482;-77
2021/12/01 05:11:36;;;;;;;7.50;2.00;;;;;;;-2.65;72.20;96212.66;5094241;28;20455;-76
2021/12/01 05:14:03;;;;;;;8.73;2.30;;;;;;;-2.69;72.05;96172.28;5094564;28;20162;-75
2021/12/01 05:16:29;;;;;;;8.83;2.10;;;;;;;-2.68;71.85;96176.56;5092834;28;20451;-74
2021/12/01 05:18:55;;;;;;;4.93;1.93;;;;;;;-2.61;71.95;96181.59;5094468;28;20067;-76
2021/12/01 05:21:21;;;;;;;7.37;1.90;;;;;;;-2.72;72.07;96178.97;5092553;28;20043;-74
2021/12/01 05:23:47;;;;;;;6.57;2.30;;;;;;;-2.58;71.77;96179.16;5094407;28;20524;-75
2021/12/01 05:26:14;;;;;;;6.13;1.97;;;;;;;-2.60;71.41;96189.34;5089951;28;20063;-75
2021/12/01 05:28:42;;;;;;;6.90;2.10;;;;;;;-2.57;71.37;96185.31;5082895;28;20064;-75
2021/12/01 05:31:08;;;;;;;10.30;2.53;;;;;;;-2.41;70.92;96202.06;5067054;28;20044;-74
2021/12/01 05:33:35;;;;;;;5.70;1.93;;;;;;;-2.43;70.81;96196.16;5088210;28;20055;-74
2021/12/01 05:36:02;;;;;;;7.55;2.35;;;;;;;-2.44;70.69;96197.25;5080260;28;20055;-71
2021/12/01 05:38:28;;;;;;;5.97;1.93;;;;;;;-2.46;70.85;96205.56;5088729;28;20226;-71
2021/12/01 05:40:54;;;;;;;5.17;1.97;;;;;;;-2.47;70.93;96195.94;5093260;28;20101;-71
2021/12/01 05:43:20;;;;;;;7.10;2.00;;;;;;;-2.49;70.67;96198.09;5092425;28;20515;-70
2021/12/01 05:45:49;;;;;;;5.37;2.10;;;;;;;-2.45;71.14;96209.03;5109198;28;20044;-71
2021/12/01 05:48:15;;;;;;;7.87;2.23;;;;;;;-2.46;70.73;96223.50;5113406;28;20146;-72
2021/12/01 05:50:42;;;;;;;10.03;2.07;;;;;;;-2.53;70.79;96206.97;5093262;28;20477;-72
2021/12/01 05:53:09;;;;;;;12.03;2.00;;;;;;;-2.50;70.77;96217.88;5090832;28;20058;-72
2021/12/01 05:55:35;;;;;;;5.13;1.98;;;;;;;-2.50;70.72;96230.47;5091556;28;20044;-70
2021/12/01 05:58:01;;;;;;;16.83;2.67;;;;;;;-2.42;70.66;96211.16;5089801;28;20048;-71
2021/12/01 06:00:27;;;;;;;11.13;2.30;;;;;;;-2.47;70.65;96225.38;5089659;28;20047;-69
2021/12/01 06:02:54;;;;;;;8.13;2.30;;;;;;;-2.52;70.84;96225.41;5091005;28;20046;-70
2021/12/01 06:05:21;;;;;;;7.40;2.20;;;;;;;-2.47;70.61;96228.06;5089912;28;20048;-70
2021/12/01 06:07:48;;;;;;;7.50;2.17;;;;;;;-2.50;70.50;96223.25;5091467;28;20043;-71
2021/12/01 06:10:14;;;;;;;5.50;1.83;;;;;;;-2.39;70.16;96231.22;5092809;28;20397;-71
2021/12/01 06:12:41;;;;;;;8.03;2.43;;;;;;;-2.42;70.29;96240.59;5090230;28;20126;-70
2021/12/01 06:15:09;;;;;;;7.17;2.17;;;;;;;-2.51;70.27;96242.25;5091276;28;20059;-70
2021/12/01 06:17:35;;;;;;;9.47;2.60;;;;;;;-2.68;70.36;96259.47;5091638;28;20054;-70
2021/12/01 06:20:04;;;;;;;5.77;2.00;;;;;;;-2.62;70.34;96250.34;5091245;28;20044;-72
2021/12/01 06:22:30;;;;;;;7.47;2.00;;;;;;;-2.58;70.37;96245.25;5071186;28;20045;-71
2021/12/01 06:24:56;;;;;;;5.67;2.07;;;;;;;-2.44;70.16;96237.38;5082843;28;20500;-71
2021/12/01 06:27:23;;;;;;;6.73;2.10;;;;;;;-2.41;70.00;96244.88;5090096;28;20047;-71
2021/12/01 06:29:49;;;;;;;5.77;2.10;;;;;;;-2.39;70.03;96256.09;5090896;28;20127;-72
2021/12/01 06:32:15;;;;;;;9.00;2.33;;;;;;;-2.47;70.27;96256.69;5090099;28;20134;-73
2021/12/01 06:34:42;;;;;;;9.40;1.90;;;;;;;-2.45;70.15;96233.13;5092915;28;20085;-71
2021/12/01 06:37:10;;;;;;;6.80;2.47;;;;;;;-2.53;70.72;96255.13;5090056;28;20052;-70
2021/12/01 06:39:35;;;;;;;;;;;;;;;-2.59;70.71;96270.41;5092360;28;20044;-71
2021/12/01 06:42:02;;;;;;;5.30;2.17;;;;;;;-2.58;70.65;96274.66;5091017;28;19930;-71
2021/12/01 06:44:30;;;;;;;8.13;2.57;;;;;;;-2.73;70.91;96248.81;5089296;28;20120;-69
2021/12/01 06:46:57;;;;;;;7.00;2.17;;;;;;;-2.68;71.22;96247.97;5090510;28;20135;-70
2021/12/01 06:49:23;;;;;;;6.60;2.33;;;;;;;-2.56;70.97;96261.81;5091835;28;20048;-70
2021/12/01 06:51:49;;;;;;;8.87;2.37;;;;;;;-2.61;70.66;96246.59;5089042;28;20070;-70
2021/12/01 06:54:16;;;;;;;6.97;2.13;;;;;;;-2.57;71.06;96281.63;5090034;28;20071;-70
2021/12/01 06:56:43;;;;;;;5.43;1.92;;;;;;;-2.69;70.91;96260.56;5095955;28;20068;-70
2021/12/01 06:59:09;;;;;;;9.00;2.10;;;;;;;-2.59;70.75;96279.22;5090882;28;20052;-71
2021/12/01 07:01:35;;;;;;;8.20;2.10;;;;;;;-2.59;70.51;96268.50;5089831;28;20054;-69
2021/12/01 07:04:01;;;;;;;7.30;2.20;;;;;;;-2.54;70.55;96272.25;5091285;28;20048;-71
2021/12/01 07:06:28;;;;;;;8.80;2.00;;;;;;;-2.51;70.41;96282.41;5090294;28;20052;-71
2021/12/01 07:08:59;;;;;;;6.80;2.00;;;;;;;-2.54;70.24;96301.69;5089108;28;20315;-71
2021/12/01 07:11:26;;;;;;;7.00;2.20;;;;;;;-2.55;70.52;96308.91;5067495;28;20051;-71
2021/12/01 07:13:52;;;;;;;;;;;;;;;-2.55;70.26;96303.53;5091309;28;20127;-71
2021/12/01 07:16:18;;;;;;;7.50;2.23;;;;;;;-2.65;70.65;96312.41;5089537;28;20027;-71
2021/12/01 07:18:44;;;;;;;8.80;2.30;;;;;;;-2.75;70.78;96333.84;5089238;28;20040;-70
2021/12/01 07:21:11;;;;;;;5.90;1.87;;;;;;;-2.72;71.06;96299.34;5089313;28;20036;-79
2021/12/01 07:23:37;;;;;;;6.47;2.23;;;;;;;-2.61;70.76;96316.13;5089615;28;20044;-80
2021/12/01 07:26:05;;;;;;;5.87;2.10;;;;;;;-2.60;70.56;96287.53;5090853;28;20066;-82
2021/12/01 07:28:33;;;;;;;9.57;2.30;;;;;;;-2.46;70.44;96304.56;5072484;28;20224;-80
2021/12/01 07:31:00;;;;;;;8.88;2.50;;;;;;;-2.40;70.40;96333.97;5089057;28;20056;-81
2021/12/01 07:33:29;;;;;;;7.57;2.20;;;;;;;-2.42;70.19;96320.84;5090719;28;20048;-78
2021/12/01 07:35:55;;;;;;;10.17;2.40;;;;;;;-2.86;70.77;96271.59;5089680;28;20349;-80
2021/12/01 07:38:21;;;;;;;8.50;2.60;;;;;;;-2.48;70.52;96328.13;5089049;28;20046;-81
2021/12/01 07:40:47;;;;;;;6.63;2.33;;;;;;;-2.47;70.13;96318.22;5087345;28;20043;-81
2021/12/01 07:43:13;;;;;;;10.27;2.40;;;;;;;-2.53;69.99;96335.38;5090181;28;20146;-80
2021/12/01 07:45:43;;;;;;;8.23;2.23;;;;;;;-2.63;70.12;96323.63;5090004;28;20040;-80
2021/12/01 07:48:10;;;;;;;10.07;2.60;;;;;;;-2.59;70.13;96313.19;5072582;28;20055;-82
2021/12/01 07:50:36;;;;;;;4.57;1.90;;;;;;;-2.33;69.52;96343.31;5071258;28;20105;-83
2021/12/01 07:53:04;;;;;;;10.07;2.27;;;;;;;-2.30;69.34;96334.72;5070314;28;20508;-83
2021/12/01 07:55:31;;;;;;;9.37;2.40;;;;;;;-2.24;69.36;96340.84;5061386;28;20044;-81
2021/12/01 07:57:57;;;;;;;9.97;2.20;;;;;;;-2.33;69.27;96355.91;5095672;28;20052;-72
2021/12/01 08:00:24;;;;;;;5.50;1.80;;;;;;;-2.32;69.42;96357.50;5091603;28;20062;-71
2021/12/01 08:02:51;;;;;;;10.80;2.23;;;;;;;-2.51;69.49;96347.38;5094415;28;20048;-71
2021/12/01 08:05:17;;;;;;;13.32;2.40;;;;;;;-2.24;69.22;96356.13;5101405;28;20047;-71
2021/12/01 08:07:43;;;;;;;6.57;2.33;;;;;;;-2.14;68.65;96356.03;5090069;28;20040;-72
2021/12/01 08:10:10;;;;;;;6.20;2.17;;;;;;;-2.29;69.05;96360.41;5091534;28;20549;-73
2021/12/01 08:12:38;;;;;;;9.65;3.05;;;;;;;-2.25;68.88;96357.97;5085585;28;20049;-73
2021/12/01 08:15:06;;;;;;;7.47;2.25;;;;;;;-2.37;69.50;96363.66;5064023;28;20135;-74
2021/12/01 08:17:33;;;;;;;5.67;2.13;;;;;;;-2.36;69.71;96351.88;5077892;28;20043;-73
2021/12/01 08:20:00;;;;;;;5.90;2.10;;;;;;;-2.41;69.64;96357.28;5069377;28;20052;-72
2021/12/01 08:22:27;;;;;;;8.35;2.30;;;;;;;-2.49;70.07;96368.53;5086719;28;20043;-72
2021/12/01 08:24:54;;;;;;;8.17;2.20;;;;;;;-2.29;69.84;96371.09;5090231;28;20504;-72
2021/12/01 08:27:21;;;;;;;7.35;2.10;;;;;;;-2.26;69.53;96364.41;5087653;28;20367;-72
2021/12/01 08:29:47;;;;;;;9.00;2.27;;;;;;;-2.37;70.04;96362.84;5085490;28;20041;-72
2021/12/01 08:32:15;;;;;;;11.17;2.37;;;;;;;-2.35;70.02;96366.06;5069469;28;20052;-73
2021/12/01 08:34:41;;;;;;;5.97;2.00;;;;;;;-2.34;70.00;96368.47;5054387;28;20052;-73
2021/12/01 08:37:10;;;;;;;6.47;2.07;;;;;;;-2.23;69.76;96357.72;5068432;28;20047;-73
2021/12/01 08:39:36;;;;;;;11.60;3.77;;;;;;;-2.33;70.08;96369.28;5082067;28;20082;-73
2021/12/01 08:42:02;;;;;;;8.00;2.53;;;;;;;-2.31;70.36;96367.13;5086833;28;20051;-72
2021/12/01 08:44:30;;;;;;;8.97;2.13;;;;;;;-2.51;70.69;96381.38;5091021;28;20098;-72
2021/12/01 08:46:56;;;;;;;;;;;;;;;-2.54;70.99;96388.06;5091161;28;20545;-72
2021/12/01 08:49:22;;;;;;;6.00;1.83;;;;;;;-2.66;71.41;96374.19;5089624;28;19923;-72
2021/12/01 08:51:50;;;;;;;8.37;2.40;;;;;;;-2.61;71.59;96375.00;5093133;28;20050;-74
2021/12/01 08:54:17;;;;;;;8.70;2.43;;;;;;;-2.67;71.88;96378.78;5077011;28;20151;-73
2021/12/01 08:56:43;;;;;;;7.47;2.40;;;;;;;-2.64;71.56;96362.16;5094813;28;20144;-72
2021/12/01 08:59:09;;;;;;;13.40;3.33;;;;;;;-2.60;71.80;96394.53;5093753;28;20524;-71
2021/12/01 09:01:36;;;;;;;12.23;2.60;;;;;;;-2.69;72.42;96380.91;5076837;28;20125;-72
2021/12/01 09:04:02;;;;;;;6.80;2.27;;;;;;;-2.74;72.46;96370.22;5093394;28;20074;-71
2021/12/01 09:06:30;;;;;;;7.97;2.50;;;;;;;-2.73;72.69;96375.31;5095576;28;20044;-72
2021/12/01 09:08:56;;;;;;;8.30;2.75;;;;;;;-2.54;72.49;96374.69;5078342;28;20507;-72
2021/12/01 09:11:24;;;;;;;8.33;2.47;;;;;;;-2.52;72.22;96393.94;5099802;28;20067;-78
2021/12/01 09:13:50;;;;;;;6.88;2.30;;;;;;;-2.64;72.74;96378.22;5076943;28;20496;-77
2021/12/01 09:16:16;;;;;;;9.73;2.53;;;;;;;-2.76;72.93;96389.22;5096413;28;20046;-78
2021/12/01 09:18:42;;;;;;;10.07;2.80;;;;;;;-2.83;73.00;96395.94;5094132;28;20044;-76
2021/12/01 09:21:09;;;;;;;7.67;2.30;;;;;;;-2.73;73.04;96379.88;5092763;28;20051;-75
2021/12/01 09:23:35;;;;;;;8.23;2.70;;;;;;;-2.67;73.07;96388.66;5095125;28;20094;-77
2021/12/01 09:26:01;;;;;;;9.30;2.60;;;;;;;-2.69;72.99;96380.91;5094843;28;20052;-77
2021/12/01 09:28:29;;;;;;;9.07;2.50;;;;;;;-2.60;72.73;96389.97;5095786;28;20036;-78
2021/12/01 09:30:57;;;;;;;8.05;2.35;;;;;;;-2.64;72.93;96375.53;5094812;28;20554;-78
2021/12/01 09:33:23;;;;;;;8.80;2.37;;;;;;;-2.42;72.80;96393.91;5106140;28;20040;-76
2021/12/01 09:35:51;;;;;;;12.63;2.50;;;;;;;-2.33;72.29;96383.44;5087757;28;20072;-76
2021/12/01 09:38:18;;;;;;;7.60;2.50;;;;;;;-2.19;71.97;96386.31;5109729;28;20056;-76
2021/12/01 09:40:47;;;;;;;9.13;2.60;;;;;;;-2.31;71.98;96413.41;5109615;28;20050;-76
2021/12/01 09:43:14;;;;;;;9.47;2.77;;;;;;;-2.33;71.88;96404.84;5103039;28;20054;-74
2021/12/01 09:45:42;;;;;;;6.70;2.30;;;;;;;-2.09;71.60;96398.88;5097980;28;20044;-75
2021/12/01 09:48:08;;;;;;;7.07;2.30;;;;;;;-2.07;71.56;96406.59;5097007;28;20540;-74
2021/12/01 09:50:35;;;;;;;8.00;2.67;;;;;;;-1.99;71.20;96400.69;5052770;28;20131;-74
2021/12/01 09:53:01;;;;;;;8.77;3.07;;;;;;;-1.96;71.45;96418.88;5076659;28;20044;-73
2021/12/01 09:55:27;;;;;;;9.50;2.30;;;;;;;-1.88;70.75;96412.91;5068573;28;20040;-74
2021/12/01 09:57:59;;;;;;;10.73;2.70;;;;;;;-1.97;70.51;96416.47;5091993;28;20101;-74
2021/12/01 10:00:26;;;;;;;8.90;2.83;;;;;;;-2.02;70.75;96428.81;5094599;28;20056;-74
2021/12/01 10:02:53;;;;;;;8.80;2.80;;;;;;;-2.08;70.78;96440.63;5088696;28;20097;-73
2021/12/01 10:05:49;;;;;;;8.55;2.75;;;;;;;-2.09;70.76;96424.81;5087260;28;20048;-73
2021/12/01 10:08:19;;;;;;;6.63;2.50;;;;;;;-2.08;71.07;96415.72;5086212;28;20102;-74
2021/12/01 10:10:46;;;;;;;11.17;2.90;;;;;;;-1.96;70.70;96429.59;5089042;28;20059;-74
2021/12/01 10:13:12;;;;;;;7.37;2.10;;;;;;;-1.97;69.91;96411.91;5079494;28;20055;-74
2021/12/01 10:15:38;;;;;;;8.53;2.30;;;;;;;-2.02;70.35;96428.03;5071165;28;20178;-74
2021/12/01 10:18:11;;;;;;;6.83;2.27;;;;;;;-1.95;70.14;96423.16;5084963;28;20454;-74
2021/12/01 10:20:37;;;;;;;9.93;2.57;;;;;;;-1.89;69.68;96413.22;5047753;28;20044;-74
2021/12/01 10:23:12;;;;;;;7.07;1.90;;;;;;;-1.79;69.52;96412.34;5089121;28;20069;-75
2021/12/01 10:25:40;;;;;;;6.03;2.03;;;;;;;-1.83;69.72;96430.06;5060764;28;20117;-75
2021/12/01 10:28:06;;;;;;;11.10;2.53;;;;;;;-1.98;69.61;96420.22;5080279;28;20044;-78
2021/12/01 10:30:41;;;;;;;9.63;2.20;;;;;;;-1.84;69.67;96437.28;5089187;28;20071;-79
2021/12/01 10:33:15;;;;;;;7.27;2.37;;;;;;;-1.86;69.17;96412.66;5072997;28;20118;-82
2021/12/01 10:35:48;;;;;;;6.68;2.38;;;;;;;-1.76;69.07;96428.69;5074109;28;20070;-80
2021/12/01 10:38:26;;;;;;;7.35;2.38;;;;;;;-2.19;69.47;96386.31;5072917;28;20044;-80
2021/12/01 10:41:01;;;;;;;10.65;2.58;;;;;;;-2.06;69.59;96434.97;5096533;28;20024;-73
2021/12/01 10:43:35;;;;;;;7.57;2.42;;;;;;;-2.05;69.63;96442.75;5103481;28;20082;-75
2021/12/01 10:46:06;;;;;;;7.70;2.13;;;;;;;-2.08;69.40;96442.50;5111893;28;20503;-76
2021/12/01 10:48:34;;;;;;;11.57;2.45;;;;;;;-2.03;69.54;96434.44;5088785;28;20036;-76
2021/12/01 10:51:00;;;;;;;7.68;2.53;;;;;;;-1.94;69.36;96435.47;5080462;28;20714;-74
2021/12/01 10:53:27;;;;;;;8.63;2.30;;;;;;;-2.01;69.22;96430.41;5079251;28;20098;-75
2021/12/01 10:55:59;;;;;;;7.83;2.20;;;;;;;-1.88;69.30;96447.75;5084229;28;20173;-74
2021/12/01 10:58:32;;;;;;;8.93;2.40;;;;;;;-1.83;68.88;96438.88;5088757;28;20090;-74
2021/12/01 11:01:00;;;;;;;7.88;2.20;;;;;;;-1.70;68.48;96437.50;5089159;28;20386;-74
2021/12/01 11:03:29;;;;;;;7.28;2.42;;;;;;;-1.62;68.67;96442.25;5069421;28;20050;-75
2021/12/01 11:06:08;;;;;;;7.23;2.50;;;;;;;-1.61;68.64;96443.84;5085503;28;20405;-74
2021/12/01 11:08:37;;;;;;;9.48;2.80;;;;;;;-1.57;68.26;96441.41;5088558;28;20052;-74
2021/12/01 11:11:06;;;;;;;8.02;2.00;;;;;;;-1.63;67.34;96431.81;5089361;28;20040;-74
2021/12/01 11:13:32;;;;;;;8.93;2.17;;;;;;;-1.61;66.98;96430.44;5084945;28;20065;-74
2021/12/01 11:16:01;;;;;;;5.18;1.95;;;;;;;-1.67;67.00;96442.28;5086634;28;20134;-74
2021/12/01 11:18:29;;;;;;;5.13;2.13;;;;;;;-1.61;67.18;96443.84;5083437;28;20044;-73
2021/12/01 11:20:58;;;;;;;7.17;2.30;;;;;;;-1.52;67.02;96436.00;5048374;28;20135;-75
2021/12/01 11:23:26;;;;;;;6.35;2.20;;;;;;;-1.50;66.72;96441.09;5088164;28;20408;-76
2021/12/01 11:25:57;;;;;;;7.87;2.40;;;;;;;-1.53;66.40;96442.44;5083014;28;20435;-77
2021/12/01 11:28:25;;;;;;;8.45;2.35;;;;;;;-1.50;66.25;96452.59;5083564;28;20044;-77
2021/12/01 11:30:54;;;;;;;6.20;2.08;;;;;;;-1.43;66.26;96452.28;5083775;28;20071;-76
2021/12/01 11:33:21;;;;;;;16.83;2.20;;;;;;;-1.41;65.62;96460.06;5087259;28;20096;-76
2021/12/01 11:35:50;;;;;;;7.65;2.47;;;;;;;-1.43;65.15;96450.44;5090900;28;20035;-78
2021/12/01 11:38:18;;;;;;;14.43;2.10;;;;;;;-1.48;65.28;96455.84;5080485;28;20040;-76
2021/12/01 11:40:45;;;;;;;7.97;2.00;;;;;;;-1.47;65.68;96445.91;5073671;28;20067;-76
2021/12/01 11:43:17;;;;;;;9.02;2.63;;;;;;;-1.57;65.58;96458.28;5089433;28;20067;-75